»·PEaware :: N752X KYKM-KBFI

N752X :: KYKM-KBFI

FLIGHT INFORMATION

Flight Status: Arrived
Operator: Privately registered:
United States
More flights under this callsign
Pilot: Ernest M. (83)
Aircraft: CESSNA 206 STATIONAIR
(C206)
More flights by this aircraft type
Origin: KYKM Yakima Air Term/Mcallister
United States
Destination: KBFI Boeing Field/King Co Intl
United States
More flights between these airports :: More routes between these airports
Route: YKM V4 SEA
File this flight plan on PilotEdge
Remarks:
Altitude:
(Current/Filed)
10,000ft
Speed:
(Current/Filed)
135kts
Departed: 18-Aug-17 08:24 PM
Arrived: 18-Aug-17 09:41 PM
Distance/Time
Traveled:
1nm/1:16
Distance/Time
To Go:
Arrived

Flight Plot

Page will automatically refresh every two minutes.

Flight plan parsing failed; only flown route is shown


Map Options




Map Legend


Flown Route
Filed Route
Departure Airport
Arrival Airport
Navaid (VOR, NDB)
Fix

Horizontal Profiles

Position Reports

Time Latitude Longitude Heading Altitude Ground
Speed
18-Aug-17 20:08 46.569469 -120.538036 270 1059ft 0kts
18-Aug-17 20:09 46.569469 -120.538036 270 1059ft 0kts
18-Aug-17 20:10 46.569469 -120.538036 270 1059ft 0kts
18-Aug-17 20:11 46.569469 -120.538036 270 1059ft 0kts
18-Aug-17 20:12 46.569469 -120.538036 270 1059ft 0kts
18-Aug-17 20:13 46.569469 -120.538036 270 1059ft 0kts
18-Aug-17 20:14 46.569469 -120.538036 270 1059ft 0kts
18-Aug-17 20:15 46.569469 -120.538036 270 1059ft 0kts
18-Aug-17 20:16 46.569469 -120.538036 270 1059ft 0kts
18-Aug-17 20:17 46.569469 -120.538036 270 1059ft 0kts
18-Aug-17 20:18 46.569469 -120.538036 270 1059ft 0kts
18-Aug-17 20:19 46.569469 -120.538036 270 1059ft 0kts
18-Aug-17 20:20 46.569474 -120.538172 271 1060ft 2kts
18-Aug-17 20:21 46.569076 -120.538197 125 1060ft 1kts
18-Aug-17 20:22 46.568814 -120.538589 175 1061ft 0kts
18-Aug-17 20:23 46.567650 -120.535372 109 1054ft 8kts
18-Aug-17 20:24 46.566409 -120.531463 170 1047ft 0kts
18-Aug-17 20:25 46.566409 -120.531463 170 1047ft 0kts
18-Aug-17 20:26 46.566409 -120.531463 170 1047ft 0kts
18-Aug-17 20:27 46.566401 -120.531462 175 1047ft 1kts
18-Aug-17 20:28 46.570118 -120.548317 292 1371ft 80kts
18-Aug-17 20:29 46.581955 -120.538935 123 2323ft 108kts
18-Aug-17 20:30 46.573189 -120.496268 95 3337ft 111kts
18-Aug-17 20:31 46.569521 -120.452048 136 4277ft 117kts
18-Aug-17 20:32 46.570245 -120.471024 313 5222ft 93kts
18-Aug-17 20:33 46.587668 -120.495216 310 6241ft 85kts
18-Aug-17 20:34 46.603077 -120.523760 304 7087ft 98kts
18-Aug-17 20:35 46.622683 -120.557840 303 7752ft 115kts
18-Aug-17 20:36 46.641780 -120.595437 301 8521ft 116kts
18-Aug-17 20:37 46.660420 -120.633865 301 9289ft 116kts
18-Aug-17 20:38 46.678918 -120.672570 301 9976ft 123kts
18-Aug-17 20:39 46.701121 -120.719237 301 9957ft 149kts
18-Aug-17 20:40 46.724802 -120.769052 302 9957ft 152kts
18-Aug-17 20:41 46.748760 -120.819615 301 9963ft 152kts
18-Aug-17 20:42 46.772572 -120.870000 301 9970ft 151kts
18-Aug-17 20:43 46.796063 -120.919809 301 9976ft 150kts
18-Aug-17 20:44 46.819440 -120.969485 301 9983ft 149kts
18-Aug-17 20:45 46.842403 -121.018314 301 9989ft 147kts
18-Aug-17 20:46 46.865177 -121.066856 301 9995ft 145kts
18-Aug-17 20:47 46.887383 -121.114097 301 10004ft 143kts
18-Aug-17 20:48 46.909308 -121.160459 300 10004ft 142kts
18-Aug-17 20:49 46.930692 -121.206149 300 10004ft 140kts
18-Aug-17 20:50 46.951820 -121.251492 300 10011ft 140kts
18-Aug-17 20:51 46.973368 -121.297828 300 10023ft 140kts
18-Aug-17 20:52 46.993879 -121.341987 299 10039ft 142kts
18-Aug-17 20:53 47.016027 -121.389724 299 9910ft 148kts
18-Aug-17 20:54 47.038556 -121.438378 299 9932ft 145kts
18-Aug-17 20:55 47.060599 -121.486108 299 9939ft 147kts
18-Aug-17 20:56 47.083020 -121.534719 299 9938ft 147kts
18-Aug-17 20:57 47.105640 -121.583845 299 9938ft 147kts
18-Aug-17 20:58 47.128221 -121.632953 299 9938ft 147kts
18-Aug-17 20:59 47.150799 -121.682179 299 9938ft 147kts
18-Aug-17 21:00 47.172708 -121.730047 304 9938ft 146kts
18-Aug-17 21:01 47.184525 -121.756078 302 9937ft 144kts
18-Aug-17 21:02 47.196834 -121.782871 302 9937ft 144kts
18-Aug-17 21:03 47.209224 -121.809882 302 9937ft 143kts
18-Aug-17 21:04 47.221337 -121.836363 302 9937ft 143kts
18-Aug-17 21:05 47.233555 -121.863139 302 9937ft 143kts
18-Aug-17 21:06 47.245891 -121.890214 302 9937ft 143kts
18-Aug-17 21:07 47.258645 -121.918232 302 9936ft 143kts
18-Aug-17 21:08 47.271871 -121.947325 302 9937ft 143kts
18-Aug-17 21:09 47.285010 -121.976271 302 9938ft 143kts
18-Aug-17 21:10 47.298813 -122.006701 302 9938ft 143kts
18-Aug-17 21:11 47.312799 -122.037504 302 9939ft 143kts
18-Aug-17 21:12 47.325694 -122.065965 302 9938ft 143kts
18-Aug-17 21:13 47.340439 -122.098517 302 9937ft 143kts
18-Aug-17 21:14 47.357203 -122.116323 351 9932ft 154kts
18-Aug-17 21:15 47.379907 -122.119217 348 9939ft 153kts
18-Aug-17 21:16 47.403502 -122.122250 348 9939ft 153kts
18-Aug-17 21:17 47.426336 -122.125098 348 9926ft 140kts
18-Aug-17 21:18 47.441985 -122.126216 348 9681ft 95kts
18-Aug-17 21:19 47.454540 -122.126572 348 9286ft 87kts
18-Aug-17 21:20 47.467535 -122.127346 348 8933ft 107kts
18-Aug-17 21:21 47.483235 -122.129181 348 8768ft 125kts
18-Aug-17 21:22 47.500142 -122.131555 348 8517ft 138kts
18-Aug-17 21:23 47.517688 -122.134404 348 7921ft 160kts
18-Aug-17 21:24 47.535889 -122.138005 348 7148ft 172kts
18-Aug-17 21:25 47.557994 -122.142896 347 6348ft 172kts
18-Aug-17 21:26 47.581025 -122.149232 337 5820ft 158kts
18-Aug-17 21:27 47.602737 -122.166362 330 5445ft 145kts
18-Aug-17 21:28 47.622339 -122.182872 329 5265ft 139kts
18-Aug-17 21:29 47.641323 -122.199688 323 5074ft 137kts
18-Aug-17 21:30 47.651470 -122.230485 288 4301ft 165kts
18-Aug-17 21:31 47.658846 -122.267631 287 3923ft 152kts
18-Aug-17 21:32 47.665776 -122.304167 285 3430ft 155kts
18-Aug-17 21:32 47.671053 -122.341335 282 2410ft 175kts
18-Aug-17 21:33 47.675843 -122.388210 252 2123ft 142kts
18-Aug-17 21:35 47.648443 -122.410357 166 1935ft 145kts
18-Aug-17 21:36 47.629373 -122.392785 141 2012ft 130kts
18-Aug-17 21:36 47.616482 -122.377172 144 1818ft 115kts
18-Aug-17 21:37 47.601779 -122.363576 154 1353ft 110kts
18-Aug-17 21:38 47.587885 -122.351408 151 991ft 103kts
18-Aug-17 21:39 47.575201 -122.341005 148 790ft 87kts
18-Aug-17 21:41 47.562207 -122.329780 150 604ft 83kts
18-Aug-17 21:41 47.553382 -122.320845 139 406ft 83kts
18-Aug-17 21:42 47.542216 -122.310966 150 177ft 77kts
18-Aug-17 21:43 47.531915 -122.302286 152 17ft 54kts
18-Aug-17 21:44 47.529830 -122.299367 329 18ft 8kts
18-Aug-17 21:45 47.530224 -122.299638 339 18ft 0kts
18-Aug-17 21:46 47.530224 -122.299638 339 18ft 0kts
18-Aug-17 21:47 47.529304 -122.300135 330 18ft 0kts
18-Aug-17 21:48 47.529304 -122.300135 330 18ft 0kts
18-Aug-17 21:49 46.588862 -120.624583 111 1926ft 140kts
18-Aug-17 21:51 46.577556 -120.578999 112 1421ft 132kts
18-Aug-17 21:52 46.566111 -120.534352 113 1053ft 147kts
18-Aug-17 21:53 46.584332 -120.494180 9 5298ft 173kts
18-Aug-17 21:54 46.627602 -120.512450 270 2567ft 217kts
18-Aug-17 21:55 46.588375 -120.514586 188 1624ft 169kts
18-Aug-17 21:56 46.562099 -120.554289 256 1088ft 96kts

Navigation Log

Ident Type
Flight plan parsing failed, navigation log unavailable